Edmonton, Alberta

10:22 PM MST on December 24, 2014 (GMT -0700)
Edmonton International | Change Station
CLOSE
Current Station
Airport
Location: Edmonton,
Elevation: 2372 ft
Nearby Weather Stations

Elev 2372 ft 53.31 °N, 113.58 °W | Updated 6 minutes ago

Light Snow
Light Snow
16 °F
Feels Like 4 °F
N
9
Wind Variable Wind from NNW

Tomorrow is forecast to be nearly the same temperature as today.

Today
High -- | Low -- °F
--% Chance of Precip.
Yesterday
High -- | Low -- °F
Precip. -- in
8:48 AM 4:19 PM
Waxing Crescent, 13% visible
Pressure 29.91 in
Visibility 12.0 miles
Clouds Few 800 ft
Overcast 1000 ft
Windchill 4 °F
Dew Point 12 °F
Humidity 86%
Rainfall 0.00 in
Snow Depth Not available.
UV 0 out of 12
Pollen Not available.
Air Quality Not available.
Flu Activity Not available.
SPECI CYEG 250516Z 34008KT 12SM -SN FEW008 OVC010 M09/M11 A2979 RMK SF2SC6 SLP128

More Conditions Fewer Conditions

Pressure 29.91 in
Visibility 12.0 miles
Clouds Few 800 ft
Overcast 1000 ft
Windchill 4 °F
Dew Point 12 °F
Humidity 86%
Rainfall 0.00 in
Snow Depth Not available.
UV 0 out of 12
Pollen Not available.
Air Quality Not available.
Flu Activity Not available.
SPECI CYEG 250516Z 34008KT 12SM -SN FEW008 OVC010 M09/M11 A2979 RMK SF2SC6 SLP128

More Conditions Fewer Conditions

10-Day Weather Forecast

Almanac

Astronomy

Dec. 24, 2014 Rise Set
Actual Time
Civil Twilight
Nautical Twilight
Astronomical Twilight
Moon
Length of Visible Light
Length of Day
Tomorrow will be .
, % of the Moon is Illuminated

Today's Extremes

Country Highs Country Lows

Community

WunderPhotos

Upload Photos

1,780,244 photos uploaded!

WunderBlogs® & News

Nearby

Air Quality

  Air Quality AQ Index Pollutant
Not available.

Snow Depth

Station Depth Elevation

Earthquake Activity

City Distance Mag. Time & Date
Minimum magnitude displayed is 2.5.

Coastal Water Temperatures

Place Temperature

Nearby Weather Stations